createdAt,value
2023-05-25T00:02:56.715Z,57.43
2023-05-25T00:08:03.860Z,57.17
2023-05-25T00:13:11.002Z,56.27
2023-05-25T00:18:17.599Z,57.80
2023-05-25T00:23:24.312Z,57.83
2023-05-25T00:28:31.176Z,56.83
2023-05-25T00:33:38.503Z,57.03
2023-05-25T00:38:45.628Z,58.07
2023-05-25T00:43:52.698Z,57.23
2023-05-25T00:49:00.396Z,56.98
2023-05-25T00:54:07.688Z,56.23
2023-05-25T00:59:20.767Z,56.90
2023-05-25T01:04:30.480Z,57.27
2023-05-25T01:09:41.409Z,58.10
2023-05-25T01:14:49.918Z,56.67
2023-05-25T01:20:09.497Z,56.43
2023-05-25T01:25:14.829Z,56.47
2023-05-25T01:30:25.516Z,55.67
2023-05-25T01:35:34.500Z,56.48
2023-05-25T01:40:41.689Z,56.05
2023-05-25T01:45:49.878Z,56.40
2023-05-25T01:51:37.290Z,55.67
2023-05-25T01:56:48.433Z,55.14
2023-05-25T02:01:56.539Z,56.20
2023-05-25T02:07:05.896Z,55.37
2023-05-25T02:12:12.627Z,56.23
2023-05-25T02:17:21.869Z,55.88
2023-05-25T02:22:28.815Z,57.10
2023-05-25T02:27:37.591Z,56.63
2023-05-25T02:32:44.207Z,56.40
2023-05-25T02:37:51.416Z,56.45
2023-05-25T02:42:58.796Z,55.43
2023-05-25T02:48:05.783Z,55.37
2023-05-25T02:53:15.794Z,56.05
2023-05-25T02:58:22.687Z,56.23
2023-05-25T03:03:30.425Z,54.85
2023-05-25T03:08:54.116Z,56.70
2023-05-25T03:14:02.229Z,55.77
2023-05-25T03:19:10.821Z,57.33
2023-05-25T03:24:17.703Z,55.80
2023-05-25T03:29:25.522Z,56.43
2023-05-25T03:34:34.950Z,55.73
2023-05-25T03:39:42.494Z,55.93
2023-05-25T03:44:49.744Z,56.63
2023-05-25T03:49:56.956Z,56.50
2023-05-25T03:55:05.497Z,57.73
2023-05-25T04:00:14.620Z,56.93
2023-05-25T04:05:21.916Z,55.83
2023-05-25T04:10:29.501Z,56.48
2023-05-25T04:15:37.018Z,56.35
2023-05-25T04:20:45.435Z,56.47
2023-05-25T04:25:52.628Z,57.40
2023-05-25T04:31:00.398Z,59.83
2023-05-25T04:36:08.345Z,58.27
2023-05-25T04:41:18.246Z,58.63
2023-05-25T04:46:25.929Z,57.57
2023-05-25T04:51:33.227Z,58.53
2023-05-25T04:56:40.516Z,61.23
2023-05-25T05:01:48.107Z,65.30
2023-05-25T05:06:57.393Z,59.43
2023-05-25T05:12:05.046Z,59.23
2023-05-25T05:17:12.985Z,59.03
2023-05-25T05:22:21.802Z,60.28
2023-05-25T05:27:29.420Z,60.30
2023-05-25T05:32:36.570Z,59.60
2023-05-25T05:37:44.650Z,59.07
2023-05-25T05:42:53.420Z,58.63
2023-05-25T05:48:01.568Z,59.40
2023-05-25T05:53:10.217Z,59.10
2023-05-25T05:58:18.087Z,59.83
2023-05-25T06:03:27.425Z,59.42
2023-05-25T06:08:35.838Z,56.70
2023-05-25T06:13:44.241Z,58.30
2023-05-25T06:18:52.319Z,59.27
2023-05-25T06:23:59.460Z,60.20
2023-05-25T06:29:06.090Z,61.73
2023-05-25T06:34:12.932Z,64.60
2023-05-25T06:39:20.450Z,58.80
2023-05-25T06:44:27.794Z,63.55
2023-05-25T06:49:35.440Z,59.73
2023-05-25T06:54:42.531Z,63.97
2023-05-25T06:59:49.209Z,59.05
2023-05-25T07:04:56.238Z,62.07
2023-05-25T07:10:05.335Z,65.73
2023-05-25T07:15:14.057Z,63.83
2023-05-25T07:20:22.331Z,62.05
2023-05-25T07:25:29.540Z,62.95
2023-05-25T07:35:43.535Z,66.33
2023-05-25T07:40:50.919Z,64.60
2023-05-25T07:45:58.425Z,70.67
2023-05-25T07:51:06.376Z,65.25
2023-05-25T07:56:12.989Z,68.13
2023-05-25T08:01:20.070Z,65.63
2023-05-25T08:06:27.480Z,67.58
2023-05-25T08:11:34.269Z,62.67
2023-05-25T08:16:41.226Z,64.40
2023-05-25T08:21:48.404Z,65.80
2023-05-25T08:26:55.363Z,66.93
2023-05-25T08:32:03.295Z,66.83
2023-05-25T08:37:11.740Z,70.57
2023-05-25T08:42:19.105Z,67.33
2023-05-25T08:47:26.576Z,73.37
2023-05-25T08:52:35.729Z,68.97
2023-05-25T08:58:16.499Z,69.33
2023-05-25T09:03:25.578Z,69.10
2023-05-25T09:08:33.109Z,69.15
2023-05-25T09:13:40.594Z,69.43
2023-05-25T09:18:48.235Z,68.90
2023-05-25T09:23:55.874Z,68.40
2023-05-25T09:29:04.724Z,72.63
2023-05-25T09:34:17.994Z,68.33
2023-05-25T09:39:25.437Z,70.42
2023-05-25T09:44:32.698Z,70.17
2023-05-25T09:49:39.532Z,71.27
2023-05-25T09:54:52.174Z,68.72
2023-05-25T09:59:59.263Z,70.77
2023-05-25T10:05:07.569Z,70.25
2023-05-25T10:10:17.851Z,70.37
2023-05-25T10:15:25.125Z,69.07
2023-05-25T10:20:35.029Z,69.55
2023-05-25T10:25:51.767Z,70.13
2023-05-25T10:31:00.019Z,73.72
2023-05-25T10:36:11.300Z,71.73
2023-05-25T10:41:17.724Z,70.67
2023-05-25T10:46:24.450Z,73.25
2023-05-25T10:51:41.506Z,71.70
2023-05-25T10:57:23.242Z,70.27
2023-05-25T11:02:32.626Z,70.17
2023-05-25T11:07:56.632Z,68.67
2023-05-25T11:13:24.371Z,71.43
2023-05-25T11:18:40.028Z,70.80
2023-05-25T11:29:16.880Z,71.65
2023-05-25T11:34:26.632Z,69.03
2023-05-25T11:39:34.049Z,70.45
2023-05-25T11:44:42.070Z,71.40
2023-05-25T11:49:50.223Z,69.35
2023-05-25T11:54:56.959Z,72.00
2023-05-25T12:00:05.503Z,70.90
2023-05-25T12:05:12.145Z,68.87
2023-05-25T12:10:20.166Z,71.50
2023-05-25T12:15:29.341Z,69.85
2023-05-25T12:20:37.680Z,69.37
2023-05-25T12:25:50.836Z,72.35
2023-05-25T12:30:53.004Z,69.73
2023-05-25T12:35:59.506Z,70.65
2023-05-25T12:41:10.650Z,71.50
2023-05-25T12:46:28.075Z,72.20
2023-05-25T12:51:41.762Z,73.10
2023-05-25T12:56:58.230Z,71.83
2023-05-25T13:02:08.733Z,71.47
2023-05-25T13:07:16.302Z,71.65
2023-05-25T13:12:22.831Z,73.33
2023-05-25T13:17:29.969Z,73.37
2023-05-25T13:22:36.873Z,74.10
2023-05-25T13:27:49.316Z,73.60
2023-05-25T13:32:56.364Z,73.40
2023-05-25T13:38:03.230Z,71.90
2023-05-25T13:43:09.680Z,72.40
2023-05-25T13:48:16.709Z,74.85
2023-05-25T13:53:23.559Z,72.87
2023-05-25T13:58:31.171Z,72.60
2023-05-25T14:03:40.721Z,72.42
2023-05-25T14:08:47.377Z,73.13
2023-05-25T14:13:54.157Z,75.00
2023-05-25T14:19:01.030Z,70.40
2023-05-25T14:24:08.487Z,73.50
2023-05-25T14:29:16.477Z,72.78
2023-05-25T14:34:23.338Z,70.95
2023-05-25T14:39:30.684Z,73.75
2023-05-25T14:44:37.718Z,72.67
2023-05-25T14:49:44.450Z,71.90
2023-05-25T14:54:50.992Z,73.27
2023-05-25T14:59:57.666Z,77.10
2023-05-25T15:05:04.504Z,72.70
2023-05-25T15:10:11.848Z,70.97
2023-05-25T15:15:20.678Z,71.34
2023-05-25T15:20:27.278Z,70.40
2023-05-25T15:25:35.809Z,70.08
2023-05-25T15:30:43.740Z,72.05
2023-05-25T15:35:50.600Z,72.37
2023-05-25T15:40:57.348Z,70.40
2023-05-25T15:46:04.115Z,71.93
2023-05-25T15:51:11.163Z,68.53
2023-05-25T15:56:17.602Z,72.50
2023-05-25T16:01:24.252Z,71.67
2023-05-25T16:06:31.428Z,72.00
2023-05-25T16:11:38.248Z,69.13
2023-05-25T16:16:45.182Z,72.13
2023-05-25T16:21:52.136Z,71.97
2023-05-25T16:27:00.404Z,69.05
2023-05-25T16:32:07.675Z,72.30
2023-05-25T16:37:15.967Z,71.10
2023-05-25T16:42:24.418Z,71.92
2023-05-25T16:47:30.990Z,68.43
2023-05-25T16:52:37.702Z,67.17
2023-05-25T16:57:45.860Z,66.83
2023-05-25T17:02:53.096Z,69.37
2023-05-25T17:08:00.542Z,66.85
2023-05-25T17:13:07.536Z,67.90
2023-05-25T17:18:16.969Z,70.80
2023-05-25T17:23:23.818Z,69.82
2023-05-25T17:28:32.262Z,70.62
2023-05-25T17:33:40.204Z,67.33
2023-05-25T17:38:47.414Z,68.10
2023-05-25T17:43:54.936Z,65.73
2023-05-25T17:49:04.861Z,70.60
2023-05-25T17:54:14.658Z,66.90
2023-05-25T17:59:22.193Z,68.73
2023-05-25T18:04:29.418Z,66.53
2023-05-25T18:09:37.994Z,67.32
2023-05-25T18:14:45.624Z,68.45
2023-05-25T18:19:52.746Z,65.27
2023-05-25T18:25:00.792Z,66.23
2023-05-25T18:30:09.370Z,67.90
2023-05-25T18:35:21.156Z,68.67
2023-05-25T18:40:28.728Z,67.87
2023-05-25T18:45:36.053Z,67.57
2023-05-25T18:50:43.706Z,66.97
2023-05-25T18:55:51.326Z,67.97
2023-05-25T19:00:58.963Z,65.63
2023-05-25T19:06:07.562Z,67.70
2023-05-25T19:11:16.097Z,68.03
2023-05-25T19:16:24.228Z,69.40
2023-05-25T19:21:34.121Z,67.20
2023-05-25T19:26:43.466Z,67.17
2023-05-25T19:31:52.834Z,75.03
2023-05-25T19:37:10.950Z,67.77
2023-05-25T19:42:09.452Z,68.20
2023-05-25T19:47:17.784Z,65.12
2023-05-25T19:52:24.809Z,68.93
2023-05-25T19:57:33.081Z,66.10
2023-05-25T20:02:41.773Z,65.00
2023-05-25T20:07:51.073Z,64.37
2023-05-25T20:12:59.501Z,65.00
2023-05-25T20:18:07.300Z,67.37
2023-05-25T20:23:20.723Z,66.00
2023-05-25T20:28:28.519Z,68.63
2023-05-25T20:33:36.121Z,66.95
2023-05-25T20:38:47.210Z,65.07
2023-05-25T20:43:55.113Z,66.63
2023-05-25T20:49:03.579Z,66.10
2023-05-25T20:54:10.865Z,66.43
2023-05-25T20:59:17.591Z,68.70
2023-05-25T21:04:24.557Z,65.62
2023-05-25T21:09:31.877Z,69.13
2023-05-25T21:14:39.347Z,65.50
2023-05-25T21:19:46.322Z,68.63
2023-05-25T21:24:53.803Z,68.85
2023-05-25T21:30:01.114Z,64.93
2023-05-25T21:35:08.308Z,66.93
2023-05-25T21:40:15.957Z,66.27
2023-05-25T21:45:23.242Z,64.20
2023-05-25T21:50:31.508Z,63.40
2023-05-25T21:55:38.477Z,65.80
2023-05-25T22:00:47.948Z,63.77
2023-05-25T22:05:55.518Z,65.30
2023-05-25T22:11:02.904Z,63.27
2023-05-25T22:16:09.918Z,71.37
2023-05-25T22:21:17.798Z,65.10
2023-05-25T22:26:24.587Z,65.83
2023-05-25T22:31:31.915Z,63.48
2023-05-25T22:36:40.844Z,65.87
2023-05-25T22:41:48.570Z,67.30
2023-05-25T22:46:56.118Z,66.50
2023-05-25T22:52:03.229Z,63.40
2023-05-25T22:57:11.917Z,65.22
2023-05-25T23:02:22.219Z,63.08
2023-05-25T23:07:30.342Z,62.35
2023-05-25T23:12:38.804Z,63.80
2023-05-25T23:17:46.109Z,65.20
2023-05-25T23:22:53.456Z,64.37
2023-05-25T23:28:00.751Z,64.23
2023-05-25T23:33:08.624Z,65.60
2023-05-25T23:38:18.648Z,63.33
2023-05-25T23:43:25.587Z,67.10
2023-05-25T23:48:33.499Z,61.98
2023-05-25T23:53:41.464Z,63.53
2023-05-25T23:58:51.855Z,61.87
